createdAt,value
2022-08-21T00:00:55.759Z,98907.69
2022-08-21T00:03:24.507Z,98903.00
2022-08-21T00:05:54.453Z,98897.56
2022-08-21T00:08:23.350Z,98900.44
2022-08-21T00:10:52.273Z,98902.91
2022-08-21T00:13:21.771Z,98901.72
2022-08-21T00:15:51.086Z,98896.50
2022-08-21T00:18:21.543Z,98886.00
2022-08-21T00:20:49.997Z,98879.13
2022-08-21T00:23:19.075Z,98878.22
2022-08-21T00:25:47.705Z,98868.91
2022-08-21T00:28:17.246Z,98873.06
2022-08-21T00:30:47.066Z,98859.69
2022-08-21T00:33:15.639Z,98869.13
2022-08-21T00:35:46.080Z,98862.63
2022-08-21T00:38:15.514Z,98842.47
2022-08-21T00:40:47.894Z,98851.88
2022-08-21T00:43:21.613Z,98858.19
2022-08-21T00:45:50.121Z,98863.31
2022-08-21T00:48:18.700Z,98859.22
2022-08-21T00:50:55.495Z,98857.47
2022-08-21T00:53:24.587Z,98857.47
2022-08-21T00:55:54.016Z,98843.00
2022-08-21T00:58:28.496Z,98857.00
2022-08-21T01:00:56.998Z,98860.16
2022-08-21T01:03:27.257Z,98857.34
2022-08-21T01:05:57.255Z,98865.28
2022-08-21T01:08:26.125Z,98863.28
2022-08-21T01:10:55.974Z,98855.25
2022-08-21T01:13:25.655Z,98864.44
2022-08-21T01:15:58.740Z,98864.81
2022-08-21T01:18:28.115Z,98856.88
2022-08-21T01:21:13.553Z,98864.91
2022-08-21T01:23:46.774Z,98856.31
2022-08-21T01:26:18.510Z,98860.50
2022-08-21T01:28:54.062Z,98856.66
2022-08-21T01:31:27.744Z,98857.25
2022-08-21T01:33:57.947Z,98863.91
2022-08-21T01:36:28.461Z,98866.81
2022-08-21T01:38:57.090Z,98862.94
2022-08-21T01:41:25.560Z,98865.88
2022-08-21T01:43:53.958Z,98871.94
2022-08-21T01:46:22.325Z,98865.97
2022-08-21T01:48:51.362Z,98859.69
2022-08-21T01:51:20.357Z,98858.53
2022-08-21T01:53:50.273Z,98871.22
2022-08-21T01:56:20.114Z,98855.59
2022-08-21T01:58:49.954Z,98861.56
2022-08-21T02:01:18.743Z,98860.28
2022-08-21T02:03:47.297Z,98846.31
2022-08-21T02:06:19.099Z,98850.25
2022-08-21T02:08:51.508Z,98844.66
2022-08-21T02:11:20.288Z,98841.53
2022-08-21T02:13:48.734Z,98840.72
2022-08-21T02:16:19.378Z,98841.53
2022-08-21T02:18:48.830Z,98829.16
2022-08-21T02:21:17.369Z,98833.94
2022-08-21T02:23:46.368Z,98819.03
2022-08-21T02:26:16.296Z,98827.31
2022-08-21T02:28:44.765Z,98826.38
2022-08-21T02:31:13.759Z,98819.41
2022-08-21T02:33:42.763Z,98819.97
2022-08-21T02:36:13.017Z,98819.75
2022-08-21T02:38:44.008Z,98806.34
2022-08-21T02:41:17.383Z,98803.69
2022-08-21T02:43:46.420Z,98811.13
2022-08-21T02:46:18.390Z,98816.47
2022-08-21T02:48:47.375Z,98807.16
2022-08-21T02:51:19.577Z,98828.59
2022-08-21T02:53:49.590Z,98824.50
2022-08-21T02:56:23.469Z,98829.97
2022-08-21T02:58:54.656Z,98827.88
2022-08-21T03:01:23.164Z,98827.16
2022-08-21T03:03:51.982Z,98830.56
2022-08-21T03:06:23.552Z,98839.06
2022-08-21T03:08:52.157Z,98840.47
2022-08-21T03:11:22.252Z,98843.50
2022-08-21T03:13:50.651Z,98840.47
2022-08-21T03:16:20.536Z,98839.53
2022-08-21T03:18:49.118Z,98842.91
2022-08-21T03:21:19.915Z,98837.44
2022-08-21T03:23:48.387Z,98838.72
2022-08-21T03:26:16.890Z,98835.22
2022-08-21T03:28:49.800Z,98830.59
2022-08-21T03:31:18.690Z,98834.31
2022-08-21T03:33:47.191Z,98828.84
2022-08-21T03:36:15.571Z,98838.97
2022-08-21T03:38:44.448Z,98833.47
2022-08-21T03:41:12.855Z,98830.81
2022-08-21T03:43:41.255Z,98823.34
2022-08-21T03:46:11.940Z,98834.63
2022-08-21T03:48:41.705Z,98828.00
2022-08-21T03:51:10.441Z,98836.03
2022-08-21T03:53:39.011Z,98824.47
2022-08-21T03:56:08.783Z,98841.69
2022-08-21T03:58:37.239Z,98845.78
2022-08-21T04:01:08.171Z,98848.47
2022-08-21T04:03:39.604Z,98856.75
2022-08-21T04:06:09.420Z,98850.81
2022-08-21T04:08:38.117Z,98849.31
2022-08-21T04:11:07.713Z,98846.97
2022-08-21T04:13:42.249Z,98854.63
2022-08-21T04:16:13.283Z,98845.53
2022-08-21T04:18:43.803Z,98861.16
2022-08-21T04:21:13.701Z,98859.16
2022-08-21T04:23:42.571Z,98857.19
2022-08-21T04:26:11.151Z,98860.81
2022-08-21T04:28:39.617Z,98876.78
2022-08-21T04:31:09.734Z,98871.19
2022-08-21T04:33:38.207Z,98873.97
2022-08-21T04:36:09.176Z,98863.59
2022-08-21T04:38:37.900Z,98871.31
2022-08-21T04:41:12.608Z,98881.75
2022-08-21T04:43:41.403Z,98878.88
2022-08-21T04:46:09.748Z,98876.91
2022-08-21T04:48:42.710Z,98881.31
2022-08-21T04:51:18.177Z,98887.72
2022-08-21T04:53:51.239Z,98879.09
2022-08-21T04:56:25.918Z,98880.00
2022-08-21T04:58:57.814Z,98880.91
2022-08-21T05:01:30.258Z,98878.72
2022-08-21T05:04:02.129Z,98877.66
2022-08-21T05:06:38.026Z,98880.09
2022-08-21T05:09:07.632Z,98877.88
2022-08-21T05:11:36.227Z,98875.16
2022-08-21T05:14:04.720Z,98875.28
2022-08-21T05:16:37.163Z,98877.47
2022-08-21T05:19:06.708Z,98877.22
2022-08-21T05:21:37.766Z,98884.19
2022-08-21T05:24:06.448Z,98878.78
2022-08-21T05:26:45.505Z,98874.53
2022-08-21T05:29:16.592Z,98878.72
2022-08-21T05:31:46.119Z,98869.97
2022-08-21T05:34:16.248Z,98877.53
2022-08-21T05:36:47.611Z,98876.28
2022-08-21T05:39:16.855Z,98886.31
2022-08-21T05:41:45.298Z,98882.34
2022-08-21T05:44:13.752Z,98878.38
2022-08-21T05:46:42.223Z,98877.53
2022-08-21T05:49:10.938Z,98875.09
2022-08-21T05:51:41.343Z,98883.16
2022-08-21T05:54:12.060Z,98889.13
2022-08-21T05:56:40.440Z,98878.28
2022-08-21T05:59:08.960Z,98884.59
2022-08-21T06:01:37.616Z,98878.91
2022-08-21T06:04:07.143Z,98892.53
2022-08-21T06:06:35.982Z,98893.69
2022-08-21T06:09:05.222Z,98899.75
2022-08-21T06:11:35.564Z,98906.19
2022-08-21T06:14:03.989Z,98903.03
2022-08-21T06:16:32.610Z,98895.41
2022-08-21T06:19:03.099Z,98900.78
2022-08-21T06:21:31.773Z,98894.09
2022-08-21T06:24:00.368Z,98901.44
2022-08-21T06:26:30.229Z,98907.16
2022-08-21T06:29:00.097Z,98904.38
2022-08-21T06:31:30.221Z,98903.06
2022-08-21T06:33:59.300Z,98904.38
2022-08-21T06:36:27.823Z,98905.66
2022-08-21T06:38:57.860Z,98910.63
2022-08-21T06:41:27.059Z,98906.63
2022-08-21T06:43:57.295Z,98905.09
2022-08-21T06:46:30.464Z,98906.00
2022-08-21T06:49:00.105Z,98916.16
2022-08-21T06:51:29.514Z,98906.56
2022-08-21T06:53:58.808Z,98907.00
2022-08-21T06:56:28.009Z,98901.41
2022-08-21T06:58:56.473Z,98901.78
2022-08-21T07:01:29.132Z,98913.34
2022-08-21T07:03:57.915Z,98906.94
2022-08-21T07:06:26.786Z,98910.19
2022-08-21T07:08:58.946Z,98915.41
2022-08-21T07:11:27.995Z,98911.00
2022-08-21T07:13:57.633Z,98909.00
2022-08-21T07:16:27.713Z,98910.25
2022-08-21T07:18:56.120Z,98915.16
2022-08-21T07:21:26.178Z,98916.44
2022-08-21T07:23:55.491Z,98930.53
2022-08-21T07:26:25.629Z,98920.41
2022-08-21T07:28:54.590Z,98921.13
2022-08-21T07:31:25.510Z,98929.44
2022-08-21T07:33:55.592Z,98929.44
2022-08-21T07:36:24.489Z,98916.81
2022-08-21T07:38:53.174Z,98935.34
2022-08-21T07:41:24.200Z,98913.69
2022-08-21T07:43:53.250Z,98916.16
2022-08-21T07:46:22.847Z,98925.84
2022-08-21T07:48:51.222Z,98906.56
2022-08-21T07:51:29.997Z,98904.97
2022-08-21T07:54:00.842Z,98913.91
2022-08-21T07:56:31.976Z,98914.25
2022-08-21T07:59:00.505Z,98912.81
2022-08-21T08:01:29.078Z,98911.00
2022-08-21T08:03:57.948Z,98911.91
2022-08-21T08:06:27.923Z,98915.56
2022-08-21T08:08:56.307Z,98914.91
2022-08-21T08:11:24.894Z,98905.47
2022-08-21T08:13:54.765Z,98905.72
2022-08-21T08:16:23.212Z,98900.81
2022-08-21T08:18:52.453Z,98904.81
2022-08-21T08:21:21.997Z,98888.84
2022-08-21T08:23:52.388Z,98888.09
2022-08-21T08:26:20.841Z,98900.69
2022-08-21T08:28:49.734Z,98892.47
2022-08-21T08:31:18.124Z,98893.94
2022-08-21T08:33:46.548Z,98894.34
2022-08-21T08:36:17.319Z,98895.81
2022-08-21T08:38:48.849Z,98892.81
2022-08-21T08:41:23.810Z,98889.41
2022-08-21T08:44:05.227Z,98882.78
2022-08-21T08:46:38.593Z,98888.56
2022-08-21T08:49:16.051Z,98887.13
2022-08-21T08:51:53.018Z,98882.91
2022-08-21T08:54:32.604Z,98886.06
2022-08-21T08:57:05.068Z,98873.25
2022-08-21T08:59:43.727Z,98875.72
2022-08-21T09:02:15.220Z,98881.91
2022-08-21T09:04:45.577Z,98878.38
2022-08-21T09:07:25.262Z,98889.53
2022-08-21T09:10:16.375Z,98886.91
2022-08-21T09:13:04.437Z,98893.94
2022-08-21T09:15:41.022Z,98894.97
2022-08-21T09:18:29.607Z,98888.91
2022-08-21T09:21:12.096Z,98883.28
2022-08-21T09:23:52.254Z,98884.84
2022-08-21T09:26:23.739Z,98877.53
2022-08-21T09:28:58.361Z,98893.06
2022-08-21T09:31:30.694Z,98883.72
2022-08-21T09:34:04.691Z,98881.28
2022-08-21T09:36:41.113Z,98888.09
2022-08-21T09:39:11.435Z,98886.47
2022-08-21T09:41:41.558Z,98882.25
2022-08-21T09:44:11.580Z,98875.56
2022-08-21T09:46:40.074Z,98893.38
2022-08-21T09:49:14.907Z,98888.25
2022-08-21T09:51:55.752Z,98881.06
2022-08-21T09:54:32.517Z,98872.31
2022-08-21T09:57:30.465Z,98863.75
2022-08-21T10:00:13.173Z,98864.00
2022-08-21T10:02:41.609Z,98862.19
2022-08-21T10:05:19.675Z,98858.13
2022-08-21T10:07:48.203Z,98855.91
2022-08-21T10:10:20.642Z,98854.16
2022-08-21T10:13:06.187Z,98859.53
2022-08-21T10:15:50.154Z,98855.47
2022-08-21T10:18:29.996Z,98855.78
2022-08-21T10:21:11.383Z,98853.72
2022-08-21T10:23:56.719Z,98866.09
2022-08-21T10:26:45.035Z,98870.50
2022-08-21T10:29:31.127Z,98871.94
2022-08-21T10:32:25.650Z,98872.22
2022-08-21T10:35:07.685Z,98869.72
2022-08-21T10:37:54.164Z,98862.09
2022-08-21T10:40:32.005Z,98867.44
2022-08-21T10:43:18.809Z,98867.59
2022-08-21T10:46:02.304Z,98862.97
2022-08-21T10:48:39.139Z,98868.63
2022-08-21T10:51:18.075Z,98869.38
2022-08-21T10:54:01.857Z,98869.56
2022-08-21T10:56:33.680Z,98869.78
2022-08-21T10:59:20.933Z,98870.00
2022-08-21T11:01:56.934Z,98874.41
2022-08-21T11:04:48.925Z,98871.34
2022-08-21T11:07:24.774Z,98883.25
2022-08-21T11:09:56.426Z,98880.63
2022-08-21T11:12:35.437Z,98880.50
2022-08-21T11:15:29.272Z,98874.03
2022-08-21T11:18:12.280Z,98870.84
2022-08-21T11:20:51.087Z,98858.50
2022-08-21T11:23:35.924Z,98852.91
2022-08-21T11:26:10.129Z,98858.09
2022-08-21T11:28:44.908Z,98853.13
2022-08-21T11:31:30.557Z,98853.63
2022-08-21T11:34:15.499Z,98859.69
2022-08-21T11:36:53.925Z,98861.34
2022-08-21T11:39:28.934Z,98859.69
2022-08-21T11:42:10.762Z,98863.22
2022-08-21T11:44:54.927Z,98867.13
2022-08-21T11:47:35.289Z,98864.63
2022-08-21T11:50:30.002Z,98867.69
2022-08-21T11:53:19.629Z,98869.41
2022-08-21T11:55:53.105Z,98869.63
2022-08-21T11:58:27.586Z,98871.81
2022-08-21T12:01:01.045Z,98874.84
2022-08-21T12:03:33.079Z,98871.97
2022-08-21T12:06:07.648Z,98868.22
2022-08-21T12:08:40.450Z,98874.56
2022-08-21T12:11:24.024Z,98884.91
2022-08-21T12:14:13.185Z,98873.59
2022-08-21T12:16:44.171Z,98870.78
2022-08-21T12:19:16.737Z,98884.91
2022-08-21T12:21:55.502Z,98883.72
2022-08-21T12:24:37.891Z,98880.72
2022-08-21T12:27:28.433Z,98895.31
2022-08-21T12:30:01.487Z,98892.53
2022-08-21T12:32:32.180Z,98893.72
2022-08-21T12:35:14.153Z,98893.75
2022-08-21T12:38:04.359Z,98898.19
2022-08-21T12:40:41.831Z,98895.06
2022-08-21T12:43:18.459Z,98892.91
2022-08-21T12:45:50.147Z,98894.78
2022-08-21T12:48:27.231Z,98900.78
2022-08-21T12:50:58.655Z,98886.28
2022-08-21T12:53:32.626Z,98889.03
2022-08-21T12:56:05.178Z,98888.56
2022-08-21T12:58:34.069Z,98888.50
2022-08-21T13:01:07.096Z,98884.06
2022-08-21T13:03:39.146Z,98877.66
2022-08-21T13:06:10.638Z,98877.34
2022-08-21T13:08:41.838Z,98877.44
2022-08-21T13:11:32.757Z,98877.88
2022-08-21T13:14:05.377Z,98876.75
2022-08-21T13:16:35.658Z,98885.63
2022-08-21T13:19:09.602Z,98889.53
2022-08-21T13:21:44.038Z,98891.53
2022-08-21T13:27:23.563Z,98886.66
2022-08-21T13:30:08.912Z,98896.25
2022-08-21T13:32:43.051Z,98893.06
2022-08-21T13:35:19.022Z,98893.44
2022-08-21T13:37:50.980Z,98889.47
2022-08-21T13:40:28.889Z,98889.81
2022-08-21T13:42:59.678Z,98883.78
2022-08-21T13:45:33.060Z,98877.72
2022-08-21T13:48:06.465Z,98883.72
2022-08-21T13:50:44.926Z,98886.97
2022-08-21T13:53:29.640Z,98890.59
2022-08-21T13:56:00.989Z,98887.34
2022-08-21T13:58:35.802Z,98896.53
2022-08-21T14:01:05.032Z,98903.84
2022-08-21T14:03:38.896Z,98887.13
2022-08-21T14:06:16.656Z,98889.09
2022-08-21T14:08:52.846Z,98882.38
2022-08-21T14:11:21.957Z,98885.75
2022-08-21T14:13:59.134Z,98873.31
2022-08-21T14:16:31.561Z,98875.84
2022-08-21T14:19:13.398Z,98878.72
2022-08-21T14:21:45.145Z,98876.38
2022-08-21T14:24:19.333Z,98873.63
2022-08-21T14:26:53.587Z,98873.25
2022-08-21T14:29:28.497Z,98883.75
2022-08-21T14:32:21.709Z,98876.28
2022-08-21T14:34:52.740Z,98878.44
2022-08-21T14:37:23.193Z,98880.13
2022-08-21T14:39:53.589Z,98870.97
2022-08-21T14:42:22.660Z,98866.66
2022-08-21T14:44:53.210Z,98880.72
2022-08-21T14:47:21.694Z,98871.09
2022-08-21T14:49:50.339Z,98874.28
2022-08-21T14:52:18.822Z,98882.34
2022-08-21T14:54:47.202Z,98875.09
2022-08-21T14:57:15.711Z,98877.06
2022-08-21T14:59:44.625Z,98882.25
2022-08-21T15:02:15.077Z,98874.94
2022-08-21T15:04:43.867Z,98872.09
2022-08-21T15:07:12.608Z,98876.06
2022-08-21T15:09:41.077Z,98873.97
2022-08-21T15:12:11.025Z,98871.94
2022-08-21T15:14:42.643Z,98871.03
2022-08-21T15:17:14.835Z,98875.03
2022-08-21T15:19:43.534Z,98876.22
2022-08-21T15:22:18.860Z,98870.16
2022-08-21T15:24:49.604Z,98866.47
2022-08-21T15:27:20.774Z,98866.03
2022-08-21T15:29:49.587Z,98870.38
2022-08-21T15:32:30.815Z,98876.72
2022-08-21T15:35:00.926Z,98869.94
2022-08-21T15:37:29.839Z,98868.75
2022-08-21T15:39:58.331Z,98867.19
2022-08-21T15:42:29.477Z,98870.44
2022-08-21T15:45:03.554Z,98870.09
2022-08-21T15:47:37.609Z,98869.72
2022-08-21T15:50:11.459Z,98874.16
2022-08-21T15:52:41.606Z,98868.16
2022-08-21T15:55:13.676Z,98868.16
2022-08-21T15:57:58.101Z,98871.78
2022-08-21T16:00:36.521Z,98866.53
2022-08-21T16:03:13.431Z,98868.97
2022-08-21T16:05:43.449Z,98874.16
2022-08-21T16:08:13.167Z,98862.84
2022-08-21T16:10:42.330Z,98873.25
2022-08-21T16:13:18.671Z,98870.38
2022-08-21T16:15:49.877Z,98869.13
2022-08-21T16:18:23.318Z,98872.75
2022-08-21T16:20:53.964Z,98873.09
2022-08-21T16:23:23.400Z,98875.56
2022-08-21T16:25:53.074Z,98864.69
2022-08-21T16:28:24.882Z,98866.69
2022-08-21T16:30:54.252Z,98860.63
2022-08-21T16:33:32.967Z,98864.19
2022-08-21T16:36:02.944Z,98866.97
2022-08-21T16:38:32.775Z,98860.53
2022-08-21T16:41:09.002Z,98861.75
2022-08-21T16:43:38.023Z,98861.38
2022-08-21T16:46:07.278Z,98865.78
2022-08-21T16:48:38.231Z,98857.34
2022-08-21T16:51:08.040Z,98856.19
2022-08-21T16:53:38.019Z,98861.81
2022-08-21T16:56:09.094Z,98857.00
2022-08-21T16:58:43.193Z,98858.19
2022-08-21T17:01:15.744Z,98863.78
2022-08-21T17:03:51.154Z,98863.34
2022-08-21T17:06:28.058Z,98861.75
2022-08-21T17:09:01.179Z,98861.28
2022-08-21T17:11:38.029Z,98854.75
2022-08-21T17:14:12.271Z,98850.34
2022-08-21T17:16:44.122Z,98849.84
2022-08-21T17:19:16.568Z,98854.69
2022-08-21T17:21:46.674Z,98858.66
2022-08-21T17:24:17.604Z,98852.59
2022-08-21T17:26:49.480Z,98846.13
2022-08-21T17:29:22.264Z,98853.72
2022-08-21T17:31:51.072Z,98843.66
2022-08-21T17:34:23.387Z,98852.44
2022-08-21T17:37:03.077Z,98852.84
2022-08-21T17:39:34.946Z,98854.81
2022-08-21T17:42:11.117Z,98855.97
2022-08-21T17:44:42.654Z,98861.25
2022-08-21T17:47:16.723Z,98859.25
2022-08-21T17:49:48.773Z,98860.06
2022-08-21T17:52:17.847Z,98853.72
2022-08-21T17:54:49.534Z,98857.69
2022-08-21T17:57:22.893Z,98865.31
2022-08-21T17:59:56.370Z,98864.50
2022-08-21T18:02:27.212Z,98860.50
2022-08-21T18:04:59.846Z,98866.50
2022-08-21T18:07:32.303Z,98865.31
2022-08-21T18:10:02.696Z,98862.97
2022-08-21T18:12:32.238Z,98865.75
2022-08-21T18:15:02.370Z,98864.94
2022-08-21T18:17:33.660Z,98860.97
2022-08-21T18:20:05.420Z,98872.19
2022-08-21T18:22:34.699Z,98869.00
2022-08-21T18:25:03.152Z,98866.19
2022-08-21T18:27:32.135Z,98867.81
2022-08-21T18:30:01.922Z,98867.81
2022-08-21T18:32:32.251Z,98869.44
2022-08-21T18:35:04.721Z,98872.25
2022-08-21T18:37:33.391Z,98872.69
2022-08-21T18:40:02.127Z,98883.94
2022-08-21T18:42:35.825Z,98876.31
2022-08-21T18:45:11.596Z,98874.69
2022-08-21T18:47:45.473Z,98872.69
2022-08-21T18:50:20.808Z,98867.09
2022-08-21T18:52:53.567Z,98874.34
2022-08-21T18:55:24.680Z,98876.31
2022-08-21T18:57:55.307Z,98888.38
2022-08-21T19:00:29.272Z,98885.13
2022-08-21T19:02:59.382Z,98892.34
2022-08-21T19:05:30.064Z,98880.31
2022-08-21T19:07:59.227Z,98883.94
2022-08-21T19:10:29.591Z,98891.19
2022-08-21T19:13:01.674Z,98890.38
2022-08-21T19:15:31.145Z,98890.38
2022-08-21T19:18:01.012Z,98891.97
2022-08-21T19:20:37.263Z,98894.78
2022-08-21T19:23:08.555Z,98891.97
2022-08-21T19:25:41.867Z,98890.38
2022-08-21T19:28:22.989Z,98884.31
2022-08-21T19:30:58.854Z,98885.84
2022-08-21T19:33:34.575Z,98881.41
2022-08-21T19:36:10.137Z,98887.41
2022-08-21T19:38:39.886Z,98886.13
2022-08-21T19:41:11.788Z,98886.50
2022-08-21T19:43:45.967Z,98886.06
2022-08-21T19:46:22.064Z,98884.88
2022-08-21T19:48:51.450Z,98887.69
2022-08-21T19:51:22.046Z,98887.69
2022-08-21T19:56:42.059Z,98884.88
2022-08-21T19:59:11.428Z,98884.06
2022-08-21T20:01:45.636Z,98886.50
2022-08-21T20:04:19.362Z,98887.34
2022-08-21T20:06:50.621Z,98883.72
2022-08-21T20:09:21.373Z,98884.53
2022-08-21T20:11:53.372Z,98876.09
2022-08-21T20:14:26.826Z,98886.13
2022-08-21T20:17:01.950Z,98877.34
2022-08-21T20:19:32.297Z,98884.59
2022-08-21T20:22:03.247Z,98878.59
2022-08-21T20:24:34.057Z,98882.59
2022-08-21T20:27:06.176Z,98884.59
2022-08-21T20:29:39.324Z,98886.13
2022-08-21T20:32:12.259Z,98883.72
2022-08-21T20:34:44.949Z,98887.25
2022-08-21T20:37:36.799Z,98891.53
2022-08-21T20:40:11.738Z,98882.13
2022-08-21T20:42:44.866Z,98890.75
2022-08-21T20:45:19.616Z,98884.50
2022-08-21T20:47:52.496Z,98886.22
2022-08-21T20:50:27.339Z,98889.13
2022-08-21T20:53:06.774Z,98886.41
2022-08-21T20:55:42.339Z,98891.75
2022-08-21T20:58:20.645Z,98884.97
2022-08-21T21:00:51.956Z,98885.03
2022-08-21T21:03:30.609Z,98887.88
2022-08-21T21:06:04.520Z,98885.59
2022-08-21T21:08:41.211Z,98892.09
2022-08-21T21:11:22.471Z,98891.69
2022-08-21T21:13:57.693Z,98894.88
2022-08-21T21:16:32.092Z,98888.88
2022-08-21T21:19:04.113Z,98892.47
2022-08-21T21:21:36.965Z,98899.72
2022-08-21T21:24:13.750Z,98903.38
2022-08-21T21:26:49.852Z,98906.63
2022-08-21T21:29:24.702Z,98903.16
2022-08-21T21:31:54.869Z,98899.66
2022-08-21T21:34:24.748Z,98898.28
2022-08-21T21:37:02.824Z,98903.63
2022-08-21T21:39:39.096Z,98904.19
2022-08-21T21:42:30.291Z,98900.69
2022-08-21T21:45:28.238Z,98901.59
2022-08-21T21:48:19.235Z,98901.81
2022-08-21T21:51:00.866Z,98899.25
2022-08-21T21:53:54.349Z,98892.25
2022-08-21T21:56:36.885Z,98903.78
2022-08-21T21:59:29.913Z,98897.25
2022-08-21T22:02:06.809Z,98900.75
2022-08-21T22:07:40.687Z,98898.38
2022-08-21T22:10:30.563Z,98895.03
2022-08-21T22:13:14.466Z,98896.03
2022-08-21T22:15:55.543Z,98893.59
2022-08-21T22:18:31.881Z,98892.28
2022-08-21T22:21:05.638Z,98902.16
2022-08-21T22:23:44.116Z,98895.78
2022-08-21T22:26:17.662Z,98906.13
2022-08-21T22:28:50.909Z,98894.47
2022-08-21T22:31:22.720Z,98888.75
2022-08-21T22:34:17.705Z,98888.16
2022-08-21T22:36:51.723Z,98890.13
2022-08-21T22:39:39.071Z,98892.78
2022-08-21T22:42:13.969Z,98886.41
2022-08-21T22:44:56.214Z,98887.91
2022-08-21T22:47:32.339Z,98876.28
2022-08-21T22:52:54.790Z,98876.81
2022-08-21T22:55:28.778Z,98880.97
2022-08-21T22:58:12.470Z,98880.25
2022-08-21T23:00:54.418Z,98872.44
2022-08-21T23:03:33.796Z,98881.81
2022-08-21T23:08:54.807Z,98869.44
2022-08-21T23:11:30.351Z,98867.19
2022-08-21T23:14:00.568Z,98871.47
2022-08-21T23:16:47.361Z,98872.44
2022-08-21T23:19:28.870Z,98870.00
2022-08-21T23:22:16.385Z,98863.13
2022-08-21T23:24:59.520Z,98871.84
2022-08-21T23:27:44.811Z,98863.84
2022-08-21T23:30:18.852Z,98860.22
2022-08-21T23:33:25.274Z,98862.53
2022-08-21T23:36:37.536Z,98867.28
2022-08-21T23:39:26.224Z,98853.56
2022-08-21T23:42:05.115Z,98856.34
2022-08-21T23:44:54.880Z,98855.03
2022-08-21T23:47:41.248Z,98849.81
2022-08-21T23:50:15.374Z,98853.44
2022-08-21T23:53:09.221Z,98862.94
2022-08-21T23:55:54.994Z,98854.09
2022-08-21T23:58:37.398Z,98848.03
